ΕΜΥ, Εθνική Μετεωρολογική Υπηρεσία - Δελτία Καιρού, Προγνώσεις

ΑΕΡΟΝΑΥΤΙΛΙΑ

GREEK AIRPORTS CODES

TAF LGMG 180700Z 1809/1818 VRB05KT 9999 FEW018 SCT030 PROB30 TEMPO 1809/1818 5000 RA SCT015 FEW018TCU BKN020=

EUROPEAN AIRPORTS CODES

LFPO 190000Z 19007KT CAVOK 16/14 Q1020 NOSIG=